Data for 11/03/2008

Time Sea-Level Adjusted Pressure Absolute Pressure Temperature Relative Humidity Dew Point   
(mb) (inHg) (mb) (inHg) (C) (F) (%) (C) (F)
00:05 1012 29.88 841 24.83 7.1 44.8 83 4.5 40.1
00:10 1012 29.88 841 24.83 7.1 44.9 84 4.7 40.4
00:15 1012 29.88 841 24.83 7.1 44.8 83 4.4 39.8
00:20 1012 29.88 841 24.83 7 44.7 78 3.5 38.3
00:25 1012 29.88 841 24.83 7 44.5 78 3.3 38
00:30 1012 29.88 841 24.83 7 44.6 75 2.9 37.3
00:35 1012 29.88 841 24.83 7 44.7 75 3 37.4
00:40 1012 29.88 842 24.86 7 44.6 74 2.7 36.9
00:45 1012 29.88 842 24.86 7 44.6 75 2.9 37.2
00:50 1012 29.88 842 24.86 7 44.6 77 3.2 37.7
00:55 1013 29.91 842 24.86 6.8 44.3 79 3.4 38.1
01:00 1013 29.91 842 24.86 6.7 44 79 3.3 37.9
01:05 1013 29.91 842 24.86 6.7 44.1 80 3.5 38.3
01:10 1013 29.91 842 24.86 6.6 44 84 4.1 39.4
01:15 1013 29.91 842 24.86 6.4 43.5 87 4.3 39.8
01:20 1013 29.91 842 24.86 6.2 43.2 89 4.5 40.2
01:25 1013 29.91 842 24.86 6.1 43 91 4.7 40.4
01:30 1013 29.91 842 24.86 6 42.8 91 4.6 40.2
01:35 1013 29.91 842 24.86 5.9 42.6 89 4.2 39.6
01:40 1013 29.91 842 24.86 5.9 42.6 88 4.1 39.4
01:45 1013 29.91 842 24.86 5.8 42.5 89 4.1 39.4
01:50 1013 29.91 842 24.86 5.9 42.6 86 3.7 38.7
01:55 1013 29.91 842 24.86 5.9 42.6 85 3.5 38.3
02:00 1013 29.91 842 24.86 5.8 42.4 84 3.3 37.9
02:05 1013 29.91 842 24.86 5.6 42 83 3 37.4
02:10 1013 29.91 842 24.86 5.6 42 84 3.1 37.6
02:15 1013 29.91 842 24.86 5.5 41.9 81 2.4 36.4
02:20 1013 29.91 842 24.86 5.6 42 82 2.7 36.8
02:25 1013 29.91 842 24.86 5.6 42.2 81 2.7 36.8
02:30 1013 29.91 842 24.86 5.6 42.2 82 2.8 37.1
02:35 1013 29.91 842 24.86 5.7 42.2 81 2.7 36.9
02:40 1013 29.91 842 24.86 5.8 42.5 80 2.6 36.6
02:45 1013 29.91 842 24.86 5.8 42.4 81 2.7 36.9
02:50 1013 29.91 842 24.86 5.7 42.3 80 2.6 36.7
01:55 1013 29.91 842 24.86 5.7 42.3 80 2.6 36.7
02:00 1013 29.91 842 24.86 5.7 42.3 80 2.5 36.6
02:05 1013 29.91 842 24.86 5.3 41.5 84 2.8 37.1
02:10 1013 29.91 843 24.89 4.8 40.6 85 2.4 36.3
02:15 1013 29.91 843 24.89 4.8 40.6 83 2.1 35.9
02:20 1014 29.94 843 24.89 4.8 40.7 84 2.4 36.3
02:25 1014 29.94 843 24.89 4.7 40.4 84 2.3 36.1
02:30 1013 29.91 843 24.89 4.6 40.3 84 2.2 35.9
02:35 1014 29.94 843 24.89 4.8 40.6 83 2.1 35.7
02:40 1013 29.91 843 24.89 4.9 40.9 83 2.3 36.2
02:45 1013 29.91 843 24.89 4.9 40.8 82 2 35.7
02:50 1013 29.91 843 24.89 5 41 83 2.3 36.2
02:55 1014 29.94 843 24.89 5 41 82 2.2 35.9
03:00 1014 29.94 843 24.89 5.1 41.2 82 2.3 36.1
03:05 1013 29.91 843 24.89 5 41 82 2.2 35.9
03:10 1013 29.91 843 24.89 4.9 40.9 82 2.1 35.8
03:15 1013 29.91 843 24.89 5 41 83 2.3 36.2
03:20 1014 29.94 843 24.89 4.8 40.7 83 2.3 36.1
03:25 1013 29.91 843 24.89 4.7 40.5 83 2.1 35.8
03:30 1014 29.94 843 24.89 4.5 40.1 87 2.5 36.6
03:35 1013 29.91 843 24.89 4.1 39.5 87 2.1 35.8
03:40 1013 29.91 843 24.89 4.7 40.5 83 2.1 35.9
03:45 1013 29.91 843 24.89 5.2 41.3 81 2.2 36
03:50 1013 29.91 843 24.89 5.6 42 80 2.4 36.2
03:55 1013 29.91 843 24.89 5.9 42.5 78 2.4 36.3
04:00 1013 29.91 843 24.89 6 42.7 76 2.1 35.8
04:05 1014 29.94 843 24.89 6 42.8 77 2.3 36.2
04:10 1014 29.94 843 24.89 5.9 42.7 77 2.3 36.1
04:15 1014 29.94 843 24.89 5.9 42.6 78 2.3 36.1
04:20 1014 29.94 843 24.89 5.8 42.4 79 2.5 36.5
04:25 1014 29.94 843 24.89 5.7 42.3 78 2.3 36.1
04:30 1014 29.94 843 24.89 5.9 42.6 78 2.3 36.1
04:35 1014 29.94 843 24.89 5.9 42.7 79 2.5 36.5
04:40 1014 29.94 843 24.89 5.9 42.7 79 2.6 36.8
04:45 1014 29.94 843 24.89 5.9 42.6 81 2.8 37.1
04:50 1014 29.94 843 24.89 5.8 42.4 83 3.1 37.6
04:55 1014 29.94 843 24.89 5.7 42.2 82 2.8 37.1
05:00 1014 29.94 843 24.89 5.7 42.3 84 3.2 37.7
05:05 1014 29.94 843 24.89 5.6 42.1 85 3.3 37.9
05:10 1014 29.94 843 24.89 5.4 41.8 84 3 37.4
05:15 1014 29.94 843 24.89 5.4 41.8 84 3 37.3
05:20 1014 29.94 843 24.89 5.3 41.6 86 3.1 37.6
05:25 1014 29.94 843 24.89 5 41 88 3.2 37.7
05:30 1014 29.94 843 24.89 4.6 40.2 89 2.9 37.2
05:35 1014 29.94 843 24.89 4.3 39.7 89 2.7 36.8
05:40 1014 29.94 843 24.89 4.2 39.5 89 2.5 36.5
05:45 1014 29.94 843 24.89 4.2 39.6 86 2.1 35.8
05:50 1014 29.94 843 24.89 4.5 40.1 85 2.2 36
05:55 1014 29.94 843 24.89 4.6 40.3 86 2.4 36.3
06:00 1014 29.94 843 24.89 4.5 40.2 85 2.2 35.9
06:05 1014 29.94 843 24.89 4.6 40.3 86 2.5 36.5
06:10 1014 29.94 843 24.89 4.6 40.3 85 2.4 36.3
06:15 1014 29.94 843 24.89 4.7 40.5 84 2.3 36.1
06:20 1014 29.94 843 24.89 5 40.9 83 2.4 36.3
06:25 1014 29.94 843 24.89 4.9 40.9 85 2.7 36.9
06:30 1014 29.94 843 24.89 4.8 40.6 85 2.5 36.5
06:35 1014 29.94 843 24.89 4.8 40.6 83 2.1 35.8
06:40 1014 29.94 843 24.89 4.9 40.8 83 2.3 36.1
06:45 1014 29.94 843 24.89 5 40.9 82 2.2 35.9
06:50 1014 29.94 843 24.89 5 41.1 83 2.4 36.3
06:55 1014 29.94 843 24.89 4.9 40.8 82 2.1 35.7
07:00 1014 29.94 843 24.89 4.9 40.8 83 2.2 36
07:05 1014 29.94 843 24.89 4.7 40.4 84 2.2 36
07:10 1014 29.94 843 24.89 4.7 40.4 83 2 35.7
07:15 1014 29.94 843 24.89 4.8 40.7 81 1.9 35.4
07:20 1014 29.94 843 24.89 5.2 41.4 81 2.2 35.9
07:25 1014 29.94 843 24.89 5.3 41.5 81 2.2 36
07:30 1014 29.94 843 24.89 5.2 41.3 80 2 35.7
07:35 1014 29.94 843 24.89 5.2 41.3 79 1.9 35.4
07:40 1014 29.94 843 24.89 5.3 41.5 78 1.8 35.3
07:45 1014 29.94 843 24.89 5.5 41.8 76 1.6 34.9
07:50 1014 29.94 843 24.89 6 42.7 75 1.8 35.2
07:55 1014 29.94 843 24.89 5.9 42.6 74 1.6 34.9
08:00 1014 29.94 843 24.89 5.9 42.5 72 1.1 34
08:05 1014 29.94 843 24.89 6.2 43.2 71 1.4 34.5
08:10 1014 29.94 843 24.89 6.6 43.9 72 2 35.6
08:15 1014 29.94 843 24.89 6.8 44.2 71 2 35.5
08:20 1014 29.94 843 24.89 7 44.6 70 1.9 35.5
08:25 1014 29.94 843 24.89 6.7 44 72 1.9 35.5
08:30 1014 29.94 843 24.89 7.6 45.6 65 1.5 34.7
08:35 1014 29.94 843 24.89 8 46.4 65 2 35.5
08:40 1014 29.94 843 24.89 8 46.4 64 1.6 34.9
08:45 1014 29.94 843 24.89 8 46.5 65 1.9 35.4
08:50 1014 29.94 843 24.89 8 46.5 65 2 35.5
08:55 1014 29.94 843 24.89 7.7 45.9 64 1.3 34.3
09:00 1014 29.94 843 24.89 8.4 47.1 56 0.3 32.5
09:05 1014 29.94 843 24.89 8.5 47.3 58 0.9 33.5
09:10 1014 29.94 843 24.89 8.3 47 60 0.9 33.7
09:15 1014 29.94 843 24.89 8.3 46.9 59 0.9 33.6
09:20 1014 29.94 843 24.89 8.3 46.9 59 0.8 33.5
09:25 1014 29.94 843 24.89 7.5 45.5 69 2.2 36
09:30 1014 29.94 843 24.89 6.9 44.5 66 1.1 34
09:35 1014 29.94 843 24.89 6.9 44.5 65 0.9 33.6
09:40 1014 29.94 843 24.89 7 44.6 66 1.1 33.9
09:45 1014 29.94 843 24.89 7.4 45.2 64 1.1 33.9
09:50 1014 29.94 843 24.89 8 46.3 61 1 33.7
09:55 1014 29.94 843 24.89 8.4 47.1 57 0.4 32.8
10:00 1014 29.94 843 24.89 9.3 48.7 55 0.6 33.1
10:05 1014 29.94 843 24.89 9.5 49 55 0.8 33.5
10:10 1014 29.94 843 24.89 9.4 48.9 56 1 33.8
10:15 1014 29.94 843 24.89 9.4 48.9 53 0.4 32.7
10:20 1014 29.94 843 24.89 9.3 48.7 54 0.6 33
10:25 1014 29.94 843 24.89 9 48.2 52 -0.3 31.5
10:30 1014 29.94 843 24.89 10.3 50.5 49 0.1 32.2
10:35 1014 29.94 843 24.89 10.9 51.6 45 -0.4 31.2
10:40 1014 29.94 843 24.89 10.2 50.4 48 -0.2 31.6
10:45 1014 29.94 843 24.89 10.2 50.4 48 -0.2 31.7
10:50 1014 29.94 843 24.89 10.3 50.6 46 -0.6 30.9
10:55 1014 29.94 843 24.89 11 51.7 43 -1 30.3
11:00 1014 29.94 843 24.89 11.3 52.3 39 -2.2 28
11:05 1014 29.94 843 24.89 11.3 52.4 36 -3.1 26.4
11:10 1014 29.94 843 24.89 11.4 52.5 36 -3 26.6
11:15 1014 29.94 843 24.89 11.1 52.1 36 -3.4 25.9
11:20 1014 29.94 843 24.89 11.1 51.9 36 -3.2 26.2
11:25 1014 29.94 843 24.89 11.2 52.1 35 -3.5 25.7
11:30 1014 29.94 843 24.89 10.5 50.9 36 -4 24.8
11:35 1014 29.94 843 24.89 10.2 50.3 37 -3.9 24.9
11:40 1013 29.91 843 24.89 10.4 50.6 36 -4.1 24.6
11:45 1013 29.91 843 24.89 10.3 50.6 36 -4 24.9
11:50 1013 29.91 843 24.89 10.4 50.6 37 -3.7 25.4
11:55 1013 29.91 843 24.89 10.7 51.3 35 -4.1 24.7
12:00 1013 29.91 843 24.89 10.8 51.5 35 -3.9 25
12:05 1013 29.91 842 24.86 11 51.9 33 -4.5 24
12:10 1013 29.91 842 24.86 11.4 52.4 34 -3.9 25
12:15 1013 29.91 842 24.86 11.1 51.9 37 -3.1 26.4
12:20 1013 29.91 842 24.86 10.6 51.1 38 -3.1 26.4
12:25 1013 29.91 842 24.86 10.3 50.5 39 -3.1 26.4
12:30 1013 29.91 842 24.86 10.1 50.2 40 -2.9 26.9
12:35 1013 29.91 842 24.86 10 50 40 -3 26.5
12:40 1013 29.91 842 24.86 9.9 49.8 40 -3.1 26.5
12:45 1013 29.91 842 24.86 9.7 49.4 42 -2.6 27.4
12:50 1013 29.91 842 24.86 9.6 49.3 43 -2.2 28
12:55 1013 29.91 842 24.86 9.6 49.3 43 -2.3 27.8
13:00 1013 29.91 842 24.86 9.7 49.4 41 -2.9 26.8
13:05 1013 29.91 842 24.86 9.7 49.4 41 -2.7 27.1
13:10 1013 29.91 842 24.86 9.7 49.5 41 -2.9 26.8
13:15 1013 29.91 842 24.86 9.6 49.4 42 -2.7 27.1
13:20 1012 29.88 842 24.86 9.5 49.1 43 -2.5 27.6
13:25 1012 29.88 842 24.86 9.4 49 44 -2.1 28.2
13:30 1012 29.88 842 24.86 9.2 48.6 42 -3.1 26.5
13:35 1012 29.88 842 24.86 9.2 48.5 42 -3.2 26.3
13:40 1012 29.88 842 24.86 9.1 48.4 41 -3.3 26.1
13:45 1012 29.88 841 24.83 9.2 48.5 40 -3.5 25.6
13:50 1012 29.88 841 24.83 9.1 48.3 41 -3.6 25.6
13:55 1012 29.88 841 24.83 9 48.3 40 -3.8 25.1
14:00 1012 29.88 841 24.83 9 48.2 40 -3.7 25.3
14:05 1012 29.88 841 24.83 9 48.3 41 -3.5 25.8
14:10 1012 29.88 841 24.83 9.3 48.8 41 -3.2 26.3
14:15 1012 29.88 841 24.83 9.4 48.9 41 -3.2 26.2
14:20 1012 29.88 841 24.83 9.4 48.9 41 -3.1 26.4
14:25 1012 29.88 841 24.83 9.5 49.1 42 -2.8 27
14:30 1012 29.88 841 24.83 9.7 49.5 41 -2.7 27.1
14:35 1012 29.88 841 24.83 10 50 40 -2.9 26.7
14:40 1012 29.88 841 24.83 10.2 50.4 40 -2.9 26.8
14:45 1012 29.88 841 24.83 10.5 50.9 38 -3.2 26.3
14:50 1012 29.88 841 24.83 10.1 50.2 38 -3.4 25.9
14:55 1012 29.88 841 24.83 10 49.9 40 -3.1 26.5
15:00 1012 29.88 841 24.83 10 49.9 41 -2.6 27.3
15:05 1012 29.88 841 24.83 9.8 49.7 42 -2.5 27.5
15:10 1012 29.88 841 24.83 9.8 49.6 41 -2.8 27
15:15 1012 29.88 841 24.83 9.7 49.4 42 -2.6 27.3
15:20 1012 29.88 841 24.83 9.7 49.4 43 -2.4 27.7
15:25 1012 29.88 841 24.83 9.8 49.6 42 -2.4 27.7
15:30 1012 29.88 841 24.83 9.8 49.7 43 -2.1 28.3
15:35 1012 29.88 841 24.83 9.9 49.8 43 -2 28.4
15:40 1012 29.88 841 24.83 9.8 49.6 44 -1.9 28.6
15:45 1012 29.88 841 24.83 9.7 49.5 45 -1.6 29.1
15:50 1011 29.85 841 24.83 9.7 49.5 46 -1.4 29.5
15:55 1011 29.85 841 24.83 9.6 49.3 46 -1.5 29.3
16:00 1011 29.85 841 24.83 9.2 48.5 49 -0.9 30.4
16:05 1011 29.85 841 24.83 8.6 47.5 49 -1.5 29.4
16:10 1011 29.85 841 24.83 8.4 47.1 49 -1.6 29.1
16:15 1011 29.85 840 24.81 8.3 46.9 49 -1.8 28.7
16:20 1011 29.85 840 24.81 8.2 46.7 48 -2 28.3
16:25 1011 29.85 840 24.81 8.2 46.7 48 -2.2 28.1
16:30 1011 29.85 840 24.81 8.2 46.8 49 -1.9 28.6
16:35 1011 29.85 840 24.81 8.2 46.7 49 -1.9 28.6
16:40 1011 29.85 840 24.81 8.2 46.8 49 -1.7 28.9
16:45 1011 29.85 840 24.81 8.2 46.7 50 -1.7 29
16:50 1011 29.85 840 24.81 8.3 46.9 51 -1.3 29.7
16:55 1011 29.85 840 24.81 8.3 46.9 51 -1.2 29.8
17:00 1011 29.85 840 24.81 7.9 46.3 53 -1.1 30
17:05 1011 29.85 840 24.81 7.5 45.6 53 -1.5 29.3
17:10 1011 29.85 840 24.81 7.6 45.7 52 -1.6 29.2
17:15 1011 29.85 840 24.81 7.6 45.7 53 -1.4 29.5
17:20 1011 29.85 840 24.81 7.5 45.5 54 -1.3 29.6
17:25 1011 29.85 840 24.81 7.4 45.4 54 -1.3 29.6
17:30 1011 29.85 840 24.81 7.3 45.1 54 -1.4 29.4
17:35 1011 29.85 840 24.81 7.2 45 54 -1.4 29.5
17:40 1011 29.85 840 24.81 7.2 44.9 55 -1.1 30
17:45 1011 29.85 840 24.81 6.9 44.5 57 -1.1 30.1
17:50 1011 29.85 840 24.81 6.8 44.2 58 -1 30.3
17:55 1011 29.85 840 24.81 6.8 44.2 56 -1.5 29.3
18:00 1011 29.85 840 24.81 6.8 44.2 55 -1.6 29.1
18:05 1011 29.85 840 24.81 6.8 44.3 56 -1.3 29.7
18:10 1011 29.85 840 24.81 6.7 44 57 -1.3 29.6
18:15 1011 29.85 840 24.81 6.6 43.9 56 -1.5 29.3
18:20 1011 29.85 840 24.81 6.7 44 56 -1.4 29.5
18:25 1011 29.85 840 24.81 6.6 43.9 57 -1.2 29.8
18:30 1011 29.85 840 24.81 6.5 43.6 57 -1.3 29.6
18:35 1011 29.85 840 24.81 6.5 43.6 58 -1.3 29.7
18:40 1011 29.85 840 24.81 6.4 43.6 56 -1.7 28.9
18:45 1011 29.85 840 24.81 6.6 43.9 57 -1.4 29.5
18:50 1011 29.85 840 24.81 6.5 43.7 56 -1.7 29
18:55 1010 29.83 840 24.81 6.5 43.6 49 -3.3 26
19:00 1010 29.83 839 24.78 6.2 43.1 50 -3.4 25.9
19:05 1010 29.83 839 24.78 6 42.8 49 -3.9 25.1
19:10 1010 29.83 839 24.78 6.1 42.9 49 -3.9 25
19:15 1010 29.83 839 24.78 6.1 43 51 -3.3 26
19:20 1010 29.83 839 24.78 5.9 42.6 51 -3.6 25.6
19:25 1010 29.83 839 24.78 6 42.9 51 -3.4 25.8
19:30 1010 29.83 839 24.78 6 42.9 50 -3.7 25.4
19:35 1010 29.83 839 24.78 6 42.8 50 -3.5 25.6
19:40 1010 29.83 839 24.78 6 42.7 53 -3 26.6
19:45 1010 29.83 839 24.78 5.7 42.3 53 -3.2 26.3
19:50 1010 29.83 839 24.78 5.4 41.7 55 -3 26.6
19:55 1010 29.83 839 24.78 5.1 41.2 54 -3.4 26
20:00 1010 29.83 839 24.78 5.3 41.6 51 -4.1 24.6
20:05 1010 29.83 839 24.78 5.6 42 51 -3.7 25.3
20:10 1010 29.83 839 24.78 5.7 42.2 52 -3.4 25.8
20:15 1010 29.83 839 24.78 5.8 42.4 50 -3.7 25.3
20:20 1010 29.83 839 24.78 5.8 42.4 53 -3.1 26.4
20:25 1010 29.83 839 24.78 5.5 41.9 55 -2.8 27
20:30 1009 29.8 839 24.78 5.5 42 54 -3 26.6
20:35 1009 29.8 839 24.78 5.2 41.3 57 -2.6 27.3
20:40 1009 29.8 839 24.78 4.5 40 61 -2.4 27.7
20:45 1010 29.83 839 24.78 3.7 38.6 65 -2.3 27.9
20:50 1010 29.83 839 24.78 3.5 38.3 63 -3 26.7
20:55 1009 29.8 839 24.78 4 39.2 63 -2.5 27.6
21:00 1009 29.8 839 24.78 4 39.1 62 -2.6 27.4
21:05 1009 29.8 839 24.78 3.9 39.1 61 -2.9 26.7
21:10 1009 29.8 839 24.78 4 39.3 62 -2.7 27.2
21:15 1009 29.8 839 24.78 3.8 38.8 64 -2.4 27.7
21:20 1009 29.8 838 24.75 3.5 38.3 65 -2.4 27.7
21:25 1009 29.8 838 24.75 3.3 38 66 -2.5 27.5
21:30 1009 29.8 838 24.75 3.3 38 65 -2.5 27.4
21:35 1009 29.8 838 24.75 3.3 38 65 -2.5 27.4
21:40 1009 29.8 838 24.75 3.4 38.2 65 -2.6 27.3
21:45 1009 29.8 838 24.75 3.6 38.4 64 -2.6 27.3
21:50 1009 29.8 838 24.75 3.7 38.6 63 -2.8 27
21:55 1009 29.8 838 24.75 3.8 38.9 63 -2.6 27.3
22:00 1009 29.8 838 24.75 3.6 38.6 63 -2.7 27.2
22:05 1009 29.8 838 24.75 3.7 38.6 63 -2.7 27.2
22:10 1008 29.77 838 24.75 3.6 38.4 63 -2.8 27
22:15 1008 29.77 838 24.75 3.8 38.8 61 -3.1 26.4
22:20 1008 29.77 837 24.72 4.1 39.4 59 -3.1 26.5
22:25 1008 29.77 837 24.72 4.3 39.7 59 -2.9 26.8
22:30 1008 29.77 837 24.72 4.2 39.6 59 -2.9 26.7
22:35 1008 29.77 837 24.72 4.3 39.8 59 -2.9 26.8
22:40 1008 29.77 837 24.72 4.3 39.8 59 -2.9 26.8
22:45 1008 29.77 837 24.72 4.3 39.8 61 -2.6 27.3
22:50 1008 29.77 837 24.72 4.2 39.5 61 -2.8 27
22:55 1008 29.77 837 24.72 4.3 39.8 59 -2.9 26.7
23:00 1008 29.77 837 24.72 4.5 40.1 59 -2.8 27
23:05 1008 29.77 837 24.72 4.6 40.2 58 -2.9 26.8
23:10 1008 29.77 837 24.72 4.6 40.4 59 -2.7 27.1
23:15 1008 29.77 837 24.72 4.6 40.3 59 -2.8 26.9
23:20 1008 29.77 837 24.72 4.7 40.5 59 -2.7 27.2
23:25 1008 29.77 837 24.72 4.6 40.3 59 -2.7 27.1
23:30 1007 29.74 837 24.72 4.6 40.3 59 -2.8 27
23:35 1007 29.74 836 24.69 4.8 40.6 57 -2.9 26.7
23:40 1007 29.74 836 24.69 4.8 40.6 59 -2.5 27.5
23:45 1007 29.74 836 24.69 4.7 40.5 59 -2.6 27.4
23:50 1007 29.74 836 24.69 5 41 58 -2.4 27.6
23:55 1007 29.74 836 24.69 5.2 41.3 59 -2.3 27.9
24:00 1007 29.74 836 24.69 5.3 41.6 59 -2 28.4